aviador You're here:

KMCX Decoded Metar

in
Report Time2017-08-22 22:15:00
UTC Time2017-08-22 22:24:57
Flight Rules vfr VFR
Wind290° at 09 Gusting to 15 kt
W.Decomp.*RWY 36: 3.1 kt HW 8.5 kt LCW
W.Rank290° ranks 10
Current wind is above 290° avg. (8.2)
Visibility9999 m
Phenomena:N/A
Clouds:Scattered 033 Hf
Scattered 041 Hf
Expected CloudBase > 2,800 ft AGL from Temp-Dew spread
CeilingNone
Temp25°C
Dew Point18°C (65% RH)
AAT24.5°C
QNH1013 hPa
Raw Report
KMCX 222215Z AUTO 29009G15KT 10SM SCT033 SCT041 25/18 A2992 RMK
AO2 T02480177=

Extra information for KMCX:More info

Social comments